Country
Station

 

Weather  for  San Jose Del Cabo  -  Mexico    Mexico

  
20 °C (68 °F)
    
 
 

Current METAR for San Jose Del Cabo is :

MMSD 221543Z 00000KT 12SM SKC 20/15 A3005 RMK CI

 

This is a report for San Jose Del Cabo - Mexico.
 
The report was made 52 minutes ago, at 15:43 UTC .
The wind was calm.
 
The temperature was 20 °C (68 °F), with a dew-point at 15 °C (59 °F).
The atmospheric pressure was 1018 hPa (30.05 inHg).
The relative humidity was 72.9%.
 
The sky was clear.
 
The overall visibility was 19.3 kilometers (12.0 miles).
 

 
 
 
 

Country :   A   B   C   D   E   F   G   H   I   J   K   L   M   N   O   P   Q   R   S   T   U   V   W   Y   Z

 

Site Info  |  Disclaimer  |  Credits  |  Privacy
Contact us  |  Add to favorites
© 2013-2019 METARs - All rights reserved